TVF80TB LPMA-LFPO
Flight info
| Callsign | TVF80TB |
|---|---|
| Flight time | N/A |
| Altitude | 38000 |
| Route | DEGUN DCT RULET DCT GALPA DCT NARTA DCT DEKUS DCT PINOX DCT RIVRO DCT TOSDI DCT ZMR DCT NEA DCT DGO L176 LUSEM DCT LULUT DCT TUDRA DCT BEVOL UT158 AMB |
| Aircraft | A320/M-SDE3FGHIRWY/LB1 |
Departure
| Time | N/A |
|---|---|
| Airport | Cristiano Ronaldo International Airport (LPMA) |
Arrival
| Time | 2026-04-30 20:04 |
|---|---|
| Airport | Paris-Orly Airport (LFPO) |
| Time | Latitude | Longitude | Altitude | Speed | Heading |
|---|---|---|---|---|---|
| 2026-04-30 17:39 | 35.86132 | -12.82100 | 38109 ft | 471 kts | 41° |
| 2026-04-30 17:42 | 36.08198 | -12.52423 | 38109 ft | 468 kts | 40° |
| 2026-04-30 17:43 | 36.19662 | -12.38194 | 38112 ft | 467 kts | 39° |
| 2026-04-30 17:44 | 36.33273 | -12.20929 | 38105 ft | 466 kts | 40° |
| 2026-04-30 17:47 | 36.53657 | -11.94981 | 38103 ft | 467 kts | 41° |
| 2026-04-30 17:48 | 36.69492 | -11.74641 | 38096 ft | 468 kts | 41° |
| 2026-04-30 17:50 | 36.87601 | -11.51249 | 38103 ft | 470 kts | 43° |
| 2026-04-30 17:52 | 37.01218 | -11.33541 | 38101 ft | 471 kts | 44° |
| 2026-04-30 17:54 | 37.21669 | -11.06766 | 38107 ft | 473 kts | 45° |
| 2026-04-30 17:56 | 37.39824 | -10.82806 | 38119 ft | 473 kts | 45° |
| 2026-04-30 17:58 | 37.53409 | -10.64765 | 38117 ft | 473 kts | 46° |
| 2026-04-30 18:00 | 37.71458 | -10.40641 | 38118 ft | 473 kts | 47° |
| 2026-04-30 18:01 | 37.82723 | -10.25482 | 38119 ft | 473 kts | 47° |
| 2026-04-30 18:02 | 37.96223 | -10.07226 | 38121 ft | 473 kts | 47° |
| 2026-04-30 18:04 | 38.10102 | -9.89453 | 38123 ft | 473 kts | 43° |
| 2026-04-30 18:06 | 38.29147 | -9.66360 | 38130 ft | 473 kts | 44° |
| 2026-04-30 18:08 | 38.45966 | -9.46323 | 38124 ft | 472 kts | 43° |
| 2026-04-30 18:10 | 38.65166 | -9.23402 | 38132 ft | 472 kts | 44° |
| 2026-04-30 18:11 | 38.81907 | -9.03272 | 38128 ft | 471 kts | 44° |
| 2026-04-30 18:13 | 38.93825 | -8.88838 | 38130 ft | 471 kts | 44° |
| 2026-04-30 18:14 | 39.05741 | -8.74383 | 38124 ft | 472 kts | 44° |
| 2026-04-30 18:15 | 39.20007 | -8.56934 | 38136 ft | 472 kts | 44° |
| 2026-04-30 18:16 | 39.29513 | -8.45272 | 38144 ft | 472 kts | 44° |
| 2026-04-30 18:17 | 39.34227 | -8.39456 | 38138 ft | 471 kts | 44° |
| 2026-04-30 18:18 | 39.41329 | -8.30690 | 38137 ft | 470 kts | 44° |
| 2026-04-30 18:18 | 39.45291 | -8.25796 | 38140 ft | 470 kts | 44° |
| 2026-04-30 18:19 | 39.50018 | -8.19944 | 38147 ft | 470 kts | 44° |
| 2026-04-30 18:19 | 39.54731 | -8.14085 | 38147 ft | 470 kts | 45° |
| 2026-04-30 18:20 | 39.59435 | -8.08214 | 38153 ft | 469 kts | 45° |
| 2026-04-30 18:20 | 39.64131 | -8.02351 | 38139 ft | 468 kts | 45° |
| 2026-04-30 18:21 | 39.68789 | -7.96535 | 38146 ft | 468 kts | 45° |
| 2026-04-30 18:21 | 39.73479 | -7.90667 | 38137 ft | 468 kts | 45° |
| 2026-04-30 18:22 | 39.78159 | -7.84792 | 38137 ft | 468 kts | 45° |
| 2026-04-30 18:22 | 39.85175 | -7.75965 | 38152 ft | 468 kts | 45° |
| 2026-04-30 18:23 | 39.89855 | -7.70071 | 38148 ft | 468 kts | 45° |
| 2026-04-30 18:23 | 39.94526 | -7.64173 | 38138 ft | 468 kts | 45° |
| 2026-04-30 18:24 | 40.01521 | -7.55303 | 38143 ft | 468 kts | 45° |
| 2026-04-30 18:25 | 40.06184 | -7.49386 | 38135 ft | 467 kts | 45° |
| 2026-04-30 18:25 | 40.13171 | -7.40498 | 38133 ft | 467 kts | 45° |
| 2026-04-30 18:26 | 40.20153 | -7.31592 | 38134 ft | 467 kts | 45° |
| 2026-04-30 18:27 | 40.27116 | -7.22668 | 38133 ft | 467 kts | 45° |
| 2026-04-30 18:28 | 40.34080 | -7.13721 | 38132 ft | 467 kts | 45° |
| 2026-04-30 18:28 | 40.41034 | -7.04761 | 38136 ft | 467 kts | 45° |
| 2026-04-30 18:29 | 40.50298 | -6.92789 | 38136 ft | 467 kts | 45° |
| 2026-04-30 18:30 | 40.59544 | -6.80783 | 38142 ft | 467 kts | 45° |
| 2026-04-30 18:31 | 40.66473 | -6.71752 | 38132 ft | 467 kts | 46° |
| 2026-04-30 18:32 | 40.73368 | -6.62751 | 38126 ft | 467 kts | 46° |
| 2026-04-30 18:33 | 40.80273 | -6.53686 | 38126 ft | 467 kts | 46° |
| 2026-04-30 18:33 | 40.87176 | -6.44611 | 38128 ft | 467 kts | 46° |
| 2026-04-30 18:34 | 40.94072 | -6.35512 | 38124 ft | 467 kts | 46° |
| 2026-04-30 18:35 | 40.98665 | -6.29434 | 38120 ft | 467 kts | 46° |
| 2026-04-30 18:35 | 41.03380 | -6.23521 | 38123 ft | 468 kts | 43° |
| 2026-04-30 18:36 | 41.10720 | -6.14975 | 38126 ft | 468 kts | 42° |
| 2026-04-30 18:37 | 41.18008 | -6.06326 | 38132 ft | 469 kts | 43° |
| 2026-04-30 18:37 | 41.22830 | -6.00498 | 38132 ft | 469 kts | 43° |
| 2026-04-30 18:38 | 41.27660 | -5.94677 | 38148 ft | 469 kts | 43° |
| 2026-04-30 18:38 | 41.32500 | -5.88855 | 38134 ft | 469 kts | 42° |
| 2026-04-30 18:39 | 41.37340 | -5.83020 | 38132 ft | 469 kts | 43° |
| 2026-04-30 18:39 | 41.42143 | -5.77210 | 38133 ft | 470 kts | 43° |
| 2026-04-30 18:40 | 41.46971 | -5.71345 | 38135 ft | 469 kts | 43° |
| 2026-04-30 18:40 | 41.51659 | -5.65291 | 38133 ft | 469 kts | 51° |
| 2026-04-30 18:41 | 41.55044 | -5.57927 | 38135 ft | 465 kts | 68° |
| 2026-04-30 18:41 | 41.57653 | -5.50018 | 38135 ft | 466 kts | 68° |
| 2026-04-30 18:42 | 41.60289 | -5.42113 | 38148 ft | 466 kts | 68° |
| 2026-04-30 18:42 | 41.64231 | -5.30230 | 38147 ft | 466 kts | 68° |
| 2026-04-30 18:45 | 41.78568 | -4.86464 | 38148 ft | 467 kts | 68° |
| 2026-04-30 18:46 | 41.81154 | -4.78475 | 38158 ft | 467 kts | 68° |
| 2026-04-30 18:46 | 41.83740 | -4.70477 | 38147 ft | 467 kts | 68° |
| 2026-04-30 18:47 | 41.86319 | -4.62483 | 38146 ft | 467 kts | 68° |
| 2026-04-30 18:47 | 41.88905 | -4.54478 | 38144 ft | 468 kts | 65° |
| 2026-04-30 18:47 | 41.90614 | -4.50778 | 38152 ft | 468 kts | 53° |
| 2026-04-30 18:48 | 41.92568 | -4.47283 | 38147 ft | 468 kts | 53° |
| 2026-04-30 18:48 | 41.96501 | -4.40298 | 38139 ft | 469 kts | 53° |
| 2026-04-30 18:49 | 42.00438 | -4.33300 | 38151 ft | 470 kts | 53° |
| 2026-04-30 18:49 | 42.04369 | -4.26278 | 38146 ft | 470 kts | 53° |
| 2026-04-30 18:50 | 42.08295 | -4.19236 | 38145 ft | 470 kts | 53° |
| 2026-04-30 18:50 | 42.12219 | -4.12186 | 38146 ft | 470 kts | 53° |
| 2026-04-30 18:51 | 42.16141 | -4.05128 | 38146 ft | 471 kts | 53° |
| 2026-04-30 18:51 | 42.20057 | -3.98057 | 38146 ft | 471 kts | 53° |
| 2026-04-30 18:52 | 42.23975 | -3.90979 | 38146 ft | 471 kts | 53° |
| 2026-04-30 18:52 | 42.27883 | -3.83893 | 38153 ft | 471 kts | 53° |
| 2026-04-30 18:53 | 42.31768 | -3.76840 | 38159 ft | 471 kts | 53° |
| 2026-04-30 18:53 | 42.35665 | -3.69734 | 38156 ft | 471 kts | 53° |
| 2026-04-30 18:54 | 42.39560 | -3.62610 | 38155 ft | 471 kts | 53° |
| 2026-04-30 18:54 | 42.43454 | -3.55494 | 38158 ft | 471 kts | 53° |
| 2026-04-30 18:55 | 42.47346 | -3.48358 | 38146 ft | 471 kts | 53° |
| 2026-04-30 18:55 | 42.53180 | -3.37634 | 38153 ft | 471 kts | 53° |
| 2026-04-30 18:56 | 42.59004 | -3.26892 | 38152 ft | 471 kts | 53° |
| 2026-04-30 18:57 | 42.64815 | -3.16118 | 38150 ft | 471 kts | 53° |
| 2026-04-30 18:57 | 42.68686 | -3.08922 | 38138 ft | 472 kts | 52° |
| 2026-04-30 18:58 | 42.74486 | -2.98109 | 38135 ft | 472 kts | 53° |
| 2026-04-30 18:59 | 42.80276 | -2.87255 | 38140 ft | 472 kts | 53° |
| 2026-04-30 19:00 | 42.87991 | -2.72771 | 38156 ft | 472 kts | 53° |
| 2026-04-30 19:01 | 42.95658 | -2.58296 | 38158 ft | 472 kts | 53° |
| 2026-04-30 19:02 | 43.01411 | -2.47380 | 38147 ft | 472 kts | 53° |
| 2026-04-30 19:03 | 43.09072 | -2.32808 | 38141 ft | 472 kts | 52° |
| 2026-04-30 19:04 | 43.16714 | -2.18176 | 38144 ft | 473 kts | 52° |
| 2026-04-30 19:05 | 43.24350 | -2.03502 | 38151 ft | 473 kts | 52° |
| 2026-04-30 19:06 | 43.31303 | -1.90030 | 38146 ft | 472 kts | 52° |
| 2026-04-30 19:06 | 43.37193 | -1.79224 | 38148 ft | 469 kts | 42° |
| 2026-04-30 19:07 | 43.42273 | -1.73755 | 38152 ft | 462 kts | 30° |
| 2026-04-30 19:07 | 43.44964 | -1.71343 | 38149 ft | 462 kts | 30° |
| 2026-04-30 19:08 | 43.55724 | -1.61605 | 38143 ft | 463 kts | 30° |
| 2026-04-30 19:09 | 43.63791 | -1.54276 | 38146 ft | 463 kts | 30° |
| 2026-04-30 19:09 | 43.69169 | -1.49379 | 38148 ft | 463 kts | 30° |
| 2026-04-30 19:10 | 43.79922 | -1.39556 | 38150 ft | 463 kts | 30° |
| 2026-04-30 19:11 | 43.87976 | -1.32161 | 38152 ft | 463 kts | 30° |
| 2026-04-30 19:12 | 43.93342 | -1.27226 | 38144 ft | 463 kts | 30° |
| 2026-04-30 19:12 | 43.98698 | -1.22291 | 38145 ft | 463 kts | 30° |
| 2026-04-30 19:13 | 44.09439 | -1.12368 | 38159 ft | 462 kts | 30° |
| 2026-04-30 19:14 | 44.14795 | -1.07405 | 38160 ft | 462 kts | 31° |
| 2026-04-30 19:14 | 44.20137 | -1.02441 | 38153 ft | 461 kts | 31° |
| 2026-04-30 19:15 | 44.25471 | -0.97459 | 38150 ft | 461 kts | 31° |
| 2026-04-30 19:15 | 44.33463 | -0.89997 | 38149 ft | 460 kts | 31° |
| 2026-04-30 19:16 | 44.38779 | -0.85018 | 38162 ft | 460 kts | 31° |
| 2026-04-30 19:17 | 44.47171 | -0.78677 | 38154 ft | 457 kts | 24° |
| 2026-04-30 19:17 | 44.55599 | -0.72560 | 38154 ft | 457 kts | 25° |
| 2026-04-30 19:18 | 44.64075 | -0.66349 | 38152 ft | 456 kts | 25° |
| 2026-04-30 19:19 | 44.69668 | -0.62246 | 38149 ft | 456 kts | 25° |
| 2026-04-30 19:19 | 44.78099 | -0.56058 | 38158 ft | 456 kts | 25° |
| 2026-04-30 19:20 | 44.83721 | -0.51923 | 38149 ft | 456 kts | 25° |
| 2026-04-30 19:21 | 44.92146 | -0.45698 | 38158 ft | 455 kts | 25° |
| 2026-04-30 19:22 | 45.03356 | -0.37374 | 38160 ft | 455 kts | 25° |
| 2026-04-30 19:23 | 45.20137 | -0.24846 | 38163 ft | 454 kts | 25° |
| 2026-04-30 19:24 | 45.28525 | -0.18560 | 38168 ft | 454 kts | 26° |
| 2026-04-30 19:25 | 45.42451 | -0.08068 | 38175 ft | 454 kts | 26° |
| 2026-04-30 19:26 | 45.53614 | 0.00386 | 38180 ft | 454 kts | 26° |
| 2026-04-30 19:27 | 45.61997 | 0.06754 | 38171 ft | 455 kts | 28° |
| 2026-04-30 19:28 | 45.70372 | 0.13142 | 38174 ft | 455 kts | 28° |
| 2026-04-30 19:29 | 45.81534 | 0.21702 | 38172 ft | 455 kts | 28° |
| 2026-04-30 19:30 | 45.92686 | 0.30287 | 38173 ft | 455 kts | 28° |
| 2026-04-30 19:31 | 46.03838 | 0.38889 | 38174 ft | 454 kts | 28° |
| 2026-04-30 19:31 | 46.12190 | 0.45361 | 38172 ft | 454 kts | 28° |
| 2026-04-30 19:32 | 46.17751 | 0.49692 | 38172 ft | 454 kts | 28° |
| 2026-04-30 19:32 | 46.23266 | 0.53997 | 38171 ft | 454 kts | 28° |
| 2026-04-30 19:33 | 46.28818 | 0.58333 | 38170 ft | 453 kts | 28° |
| 2026-04-30 19:33 | 46.34357 | 0.62665 | 38166 ft | 453 kts | 28° |
| 2026-04-30 19:34 | 46.39894 | 0.67014 | 38162 ft | 453 kts | 28° |
| 2026-04-30 19:35 | 46.48189 | 0.73565 | 38162 ft | 452 kts | 28° |
| 2026-04-30 19:35 | 46.53793 | 0.77692 | 38162 ft | 451 kts | 20° |
| 2026-04-30 19:36 | 46.59863 | 0.79941 | 38163 ft | 451 kts | 12° |
| 2026-04-30 19:36 | 46.69065 | 0.82833 | 38157 ft | 451 kts | 12° |
| 2026-04-30 19:37 | 46.75200 | 0.84780 | 38159 ft | 451 kts | 12° |
| 2026-04-30 19:37 | 46.81330 | 0.86729 | 38005 ft | 451 kts | 12° |
| 2026-04-30 19:38 | 46.84390 | 0.87703 | 37752 ft | 449 kts | 12° |
| 2026-04-30 19:38 | 46.87436 | 0.88670 | 37503 ft | 448 kts | 12° |
| 2026-04-30 19:38 | 46.90488 | 0.89642 | 37106 ft | 449 kts | 12° |
| 2026-04-30 19:38 | 46.93541 | 0.90618 | 36387 ft | 450 kts | 13° |
| 2026-04-30 19:39 | 46.96616 | 0.91605 | 35570 ft | 453 kts | 13° |
| 2026-04-30 19:39 | 46.99707 | 0.92597 | 34690 ft | 458 kts | 13° |
| 2026-04-30 19:39 | 47.02836 | 0.93597 | 33825 ft | 461 kts | 13° |
| 2026-04-30 19:39 | 47.05984 | 0.94597 | 32909 ft | 465 kts | 13° |
| 2026-04-30 19:40 | 47.09161 | 0.95604 | 31892 ft | 470 kts | 13° |
| 2026-04-30 19:40 | 47.12335 | 0.96608 | 30872 ft | 474 kts | 13° |
| 2026-04-30 19:40 | 47.15562 | 0.97633 | 30058 ft | 473 kts | 14° |
| 2026-04-30 19:40 | 47.18728 | 0.98639 | 29907 ft | 457 kts | 14° |
| 2026-04-30 19:41 | 47.21774 | 0.99608 | 29802 ft | 440 kts | 14° |
| 2026-04-30 19:41 | 47.24744 | 1.00561 | 29437 ft | 441 kts | 14° |
| 2026-04-30 19:41 | 47.27778 | 1.01545 | 28282 ft | 451 kts | 14° |
| 2026-04-30 19:41 | 47.30858 | 1.02545 | 27498 ft | 451 kts | 14° |
| 2026-04-30 19:42 | 47.33912 | 1.03531 | 26768 ft | 449 kts | 14° |
| 2026-04-30 19:42 | 47.36957 | 1.04508 | 26083 ft | 446 kts | 14° |
| 2026-04-30 19:42 | 47.39940 | 1.05463 | 25890 ft | 431 kts | 14° |
| 2026-04-30 19:42 | 47.42826 | 1.06425 | 25624 ft | 420 kts | 18° |
| 2026-04-30 19:43 | 47.45572 | 1.07767 | 25322 ft | 414 kts | 22° |
| 2026-04-30 19:43 | 47.48285 | 1.09165 | 24785 ft | 411 kts | 22° |
| 2026-04-30 19:43 | 47.50969 | 1.10551 | 24239 ft | 407 kts | 22° |
| 2026-04-30 19:44 | 47.56283 | 1.13268 | 23161 ft | 401 kts | 22° |
| 2026-04-30 19:44 | 47.58920 | 1.14602 | 22630 ft | 398 kts | 21° |
| 2026-04-30 19:44 | 47.61528 | 1.15919 | 22099 ft | 395 kts | 22° |
| 2026-04-30 19:44 | 47.64120 | 1.17229 | 21581 ft | 392 kts | 21° |
| 2026-04-30 19:45 | 47.66692 | 1.18532 | 21060 ft | 390 kts | 21° |
| 2026-04-30 19:45 | 47.69250 | 1.19833 | 20546 ft | 387 kts | 21° |
| 2026-04-30 19:45 | 47.71787 | 1.21130 | 20029 ft | 385 kts | 22° |
| 2026-04-30 19:45 | 47.74311 | 1.22422 | 19525 ft | 382 kts | 21° |
| 2026-04-30 19:46 | 47.76816 | 1.23707 | 19011 ft | 380 kts | 21° |
| 2026-04-30 19:46 | 47.79311 | 1.24987 | 18537 ft | 377 kts | 21° |
| 2026-04-30 19:46 | 47.81776 | 1.26251 | 18033 ft | 375 kts | 21° |
| 2026-04-30 19:46 | 47.84225 | 1.27503 | 17549 ft | 372 kts | 21° |
| 2026-04-30 19:47 | 47.86664 | 1.28750 | 17135 ft | 368 kts | 21° |
| 2026-04-30 19:47 | 47.88268 | 1.29573 | 16763 ft | 368 kts | 21° |
| 2026-04-30 19:47 | 47.91483 | 1.31228 | 16128 ft | 366 kts | 21° |
| 2026-04-30 19:47 | 47.93871 | 1.32462 | 15772 ft | 360 kts | 21° |
| 2026-04-30 19:48 | 47.96230 | 1.33680 | 15300 ft | 358 kts | 21° |
| 2026-04-30 19:48 | 47.98582 | 1.34895 | 14825 ft | 356 kts | 21° |
| 2026-04-30 19:48 | 48.00915 | 1.36101 | 14368 ft | 354 kts | 21° |
| 2026-04-30 19:48 | 48.03223 | 1.37296 | 13770 ft | 350 kts | 21° |
| 2026-04-30 19:49 | 48.05486 | 1.38556 | 13226 ft | 345 kts | 27° |
| 2026-04-30 19:49 | 48.09443 | 1.42259 | 12571 ft | 316 kts | 36° |
| 2026-04-30 19:49 | 48.11227 | 1.44053 | 12160 ft | 304 kts | 36° |
| 2026-04-30 19:50 | 48.12394 | 1.45226 | 11923 ft | 304 kts | 36° |
| 2026-04-30 19:50 | 48.14134 | 1.46974 | 11659 ft | 300 kts | 36° |
| 2026-04-30 19:50 | 48.15861 | 1.48711 | 11411 ft | 298 kts | 36° |
| 2026-04-30 19:50 | 48.17579 | 1.50446 | 11159 ft | 298 kts | 36° |
| 2026-04-30 19:51 | 48.19293 | 1.52186 | 10953 ft | 297 kts | 36° |
| 2026-04-30 19:51 | 48.21006 | 1.53925 | 10705 ft | 297 kts | 36° |
| 2026-04-30 19:51 | 48.22721 | 1.55663 | 10403 ft | 297 kts | 36° |
| 2026-04-30 19:51 | 48.24429 | 1.57395 | 10094 ft | 296 kts | 36° |
| 2026-04-30 19:52 | 48.26136 | 1.59127 | 9814 ft | 296 kts | 35° |
| 2026-04-30 19:52 | 48.27821 | 1.60840 | 9536 ft | 296 kts | 35° |
| 2026-04-30 19:52 | 48.29545 | 1.62596 | 9248 ft | 296 kts | 35° |
| 2026-04-30 19:52 | 48.31251 | 1.64335 | 8968 ft | 296 kts | 35° |
| 2026-04-30 19:53 | 48.32951 | 1.66069 | 8689 ft | 295 kts | 35° |
| 2026-04-30 19:53 | 48.34630 | 1.67767 | 8405 ft | 293 kts | 35° |
| 2026-04-30 19:53 | 48.36317 | 1.69481 | 8125 ft | 292 kts | 35° |
| 2026-04-30 19:53 | 48.37985 | 1.71196 | 7854 ft | 290 kts | 36° |
| 2026-04-30 19:54 | 48.39642 | 1.72921 | 7580 ft | 288 kts | 36° |
| 2026-04-30 19:54 | 48.41279 | 1.74641 | 7308 ft | 286 kts | 36° |
| 2026-04-30 19:54 | 48.42909 | 1.76360 | 7038 ft | 285 kts | 36° |
| 2026-04-30 19:54 | 48.44528 | 1.78070 | 6765 ft | 283 kts | 36° |
| 2026-04-30 19:55 | 48.46140 | 1.79775 | 6496 ft | 282 kts | 36° |
| 2026-04-30 19:55 | 48.47738 | 1.81472 | 6232 ft | 280 kts | 36° |
| 2026-04-30 19:55 | 48.49324 | 1.83156 | 5966 ft | 278 kts | 36° |
| 2026-04-30 19:55 | 48.50816 | 1.84977 | 5713 ft | 276 kts | 44° |
| 2026-04-30 19:56 | 48.52203 | 1.86950 | 5455 ft | 270 kts | 45° |
| 2026-04-30 19:56 | 48.53521 | 1.88870 | 5208 ft | 263 kts | 46° |
| 2026-04-30 19:56 | 48.54811 | 1.90766 | 4953 ft | 255 kts | 46° |
| 2026-04-30 19:56 | 48.56063 | 1.92614 | 4707 ft | 248 kts | 46° |
| 2026-04-30 19:57 | 48.57304 | 1.94448 | 4462 ft | 258 kts | 47° |
| 2026-04-30 19:57 | 48.58604 | 1.96365 | 4210 ft | 262 kts | 47° |
| 2026-04-30 19:57 | 48.59878 | 1.98282 | 4036 ft | 252 kts | 52° |
| 2026-04-30 19:57 | 48.60838 | 2.00372 | 4005 ft | 232 kts | 63° |
| 2026-04-30 19:58 | 48.61582 | 2.02439 | 4011 ft | 216 kts | 65° |
| 2026-04-30 19:58 | 48.62269 | 2.04384 | 4004 ft | 203 kts | 65° |
| 2026-04-30 19:58 | 48.62920 | 2.06210 | 3965 ft | 193 kts | 65° |
| 2026-04-30 19:58 | 48.63554 | 2.07986 | 3780 ft | 191 kts | 65° |
| 2026-04-30 19:59 | 48.64186 | 2.09753 | 3543 ft | 191 kts | 65° |
| 2026-04-30 19:59 | 48.64799 | 2.11467 | 3314 ft | 183 kts | 65° |
| 2026-04-30 19:59 | 48.65788 | 2.14229 | 2918 ft | 151 kts | 66° |
| 2026-04-30 20:00 | 48.66264 | 2.15563 | 2722 ft | 140 kts | 65° |
| 2026-04-30 20:00 | 48.66715 | 2.16832 | 2520 ft | 135 kts | 65° |
| 2026-04-30 20:00 | 48.67149 | 2.18052 | 2353 ft | 133 kts | 65° |
| 2026-04-30 20:00 | 48.67591 | 2.19292 | 2168 ft | 132 kts | 65° |
| 2026-04-30 20:01 | 48.68457 | 2.21727 | 1826 ft | 131 kts | 64° |
| 2026-04-30 20:01 | 48.68884 | 2.22927 | 1664 ft | 132 kts | 63° |
| 2026-04-30 20:01 | 48.69321 | 2.24155 | 1477 ft | 132 kts | 63° |
| 2026-04-30 20:02 | 48.70191 | 2.26592 | 1112 ft | 131 kts | 64° |
| 2026-04-30 20:02 | 48.70624 | 2.27799 | 939 ft | 130 kts | 63° |
| 2026-04-30 20:03 | 48.71482 | 2.30214 | 625 ft | 129 kts | 63° |
| 2026-04-30 20:03 | 48.71907 | 2.31419 | 404 ft | 131 kts | 63° |
| 2026-04-30 20:03 | 48.72334 | 2.32626 | 302 ft | 126 kts | 62° |
| 2026-04-30 20:03 | 48.72681 | 2.33624 | 293 ft | 84 kts | 62° |
| 2026-04-30 20:04 | 48.72886 | 2.34200 | 295 ft | 47 kts | 62° |
| 2026-04-30 20:04 | 48.72992 | 2.34584 | 294 ft | 30 kts | 81° |
| 2026-04-30 20:04 | 48.73016 | 2.34824 | 291 ft | 21 kts | 82° |
| 2026-04-30 20:05 | 48.73015 | 2.35220 | 295 ft | 21 kts | 123° |
| 2026-04-30 20:05 | 48.72900 | 2.35367 | 295 ft | 22 kts | 126° |
| 2026-04-30 20:05 | 48.72574 | 2.35550 | 296 ft | 28 kts | 165° |
| 2026-04-30 20:06 | 48.72464 | 2.35663 | 294 ft | 18 kts | 91° |
| 2026-04-30 20:06 | 48.72474 | 2.35870 | 295 ft | 23 kts | 96° |
| 2026-04-30 20:06 | 48.72485 | 2.36114 | 296 ft | 24 kts | 73° |
| 2026-04-30 20:06 | 48.72527 | 2.36346 | 291 ft | 21 kts | 74° |
| 2026-04-30 20:07 | 48.72555 | 2.36498 | 291 ft | 15 kts | 75° |
| 2026-04-30 20:07 | 48.72597 | 2.36587 | 291 ft | 9 kts | 360° |
| 2026-04-30 20:07 | 48.72682 | 2.36591 | 291 ft | 2 kts | 4° |
| 2026-04-30 20:08 | 48.72688 | 2.36592 | 291 ft | 0 kts | 4° |